createdAt,value
2022-08-26T00:01:46.437Z,66.61
2022-08-26T00:04:13.396Z,66.86
2022-08-26T00:06:42.451Z,67.50
2022-08-26T00:09:12.418Z,67.45
2022-08-26T00:11:38.828Z,68.37
2022-08-26T00:14:06.486Z,68.19
2022-08-26T00:16:33.207Z,68.10
2022-08-26T00:19:00.027Z,68.15
2022-08-26T00:21:26.515Z,68.79
2022-08-26T00:23:54.150Z,69.09
2022-08-26T00:26:20.694Z,68.81
2022-08-26T00:28:47.354Z,69.24
2022-08-26T00:31:14.251Z,69.88
2022-08-26T00:33:41.032Z,69.72
2022-08-26T00:36:08.419Z,69.85
2022-08-26T00:38:46.408Z,70.10
2022-08-26T00:41:13.023Z,70.58
2022-08-26T00:43:46.256Z,70.91
2022-08-26T00:46:23.337Z,70.94
2022-08-26T00:48:57.673Z,71.18
2022-08-26T00:51:29.759Z,72.92
2022-08-26T00:54:05.648Z,73.51
2022-08-26T00:56:42.085Z,74.56
2022-08-26T00:59:11.768Z,74.05
2022-08-26T01:01:41.403Z,74.74
2022-08-26T01:04:09.555Z,74.28
2022-08-26T01:06:37.035Z,74.13
2022-08-26T01:09:04.734Z,74.24
2022-08-26T01:11:32.790Z,74.26
2022-08-26T01:14:02.744Z,74.48
2022-08-26T01:16:30.276Z,74.81
2022-08-26T01:19:02.868Z,74.66
2022-08-26T01:21:40.758Z,74.68
2022-08-26T01:24:10.307Z,74.95
2022-08-26T01:26:42.944Z,75.90
2022-08-26T01:29:13.736Z,76.10
2022-08-26T01:31:44.745Z,75.62
2022-08-26T01:34:23.251Z,76.04
2022-08-26T01:36:58.580Z,77.31
2022-08-26T01:39:25.319Z,76.54
2022-08-26T01:41:55.603Z,76.56
2022-08-26T01:44:28.228Z,75.72
2022-08-26T01:46:57.180Z,75.99
2022-08-26T01:49:26.065Z,76.63
2022-08-26T01:51:55.795Z,76.11
2022-08-26T01:54:23.589Z,76.59
2022-08-26T01:56:52.509Z,77.53
2022-08-26T01:59:21.007Z,77.44
2022-08-26T02:01:48.822Z,77.56
2022-08-26T02:04:21.311Z,77.66
2022-08-26T02:06:48.581Z,78.39
2022-08-26T02:09:16.446Z,79.54
2022-08-26T02:11:43.356Z,80.02
2022-08-26T02:14:14.966Z,80.72
2022-08-26T02:16:45.485Z,81.29
2022-08-26T02:19:22.292Z,81.44
2022-08-26T02:21:52.053Z,81.95
2022-08-26T02:24:24.576Z,82.41
2022-08-26T02:26:55.833Z,82.22
2022-08-26T02:29:26.642Z,82.17
2022-08-26T02:31:54.820Z,82.39
2022-08-26T02:34:32.793Z,83.16
2022-08-26T02:37:01.394Z,84.16
2022-08-26T02:39:29.503Z,83.95
2022-08-26T02:41:57.484Z,84.27
2022-08-26T02:44:24.145Z,84.16
2022-08-26T02:46:52.719Z,84.54
2022-08-26T02:49:21.791Z,84.54
2022-08-26T02:51:49.389Z,84.65
2022-08-26T02:54:17.453Z,84.65
2022-08-26T02:56:44.918Z,84.23
2022-08-26T02:59:15.319Z,84.33
2022-08-26T03:01:42.727Z,83.76
2022-08-26T03:04:12.213Z,83.90
2022-08-26T03:06:39.366Z,84.17
2022-08-26T03:09:08.915Z,84.55
2022-08-26T03:11:36.710Z,84.16
2022-08-26T03:14:03.890Z,84.22
2022-08-26T03:16:36.459Z,84.77
2022-08-26T03:19:06.678Z,85.34
2022-08-26T03:21:37.032Z,85.69
2022-08-26T03:24:04.970Z,85.59
2022-08-26T03:26:31.536Z,86.06
2022-08-26T03:29:16.603Z,86.95
2022-08-26T03:31:43.451Z,86.74
2022-08-26T03:34:11.296Z,86.85
2022-08-26T03:36:38.599Z,84.15
2022-08-26T03:39:07.444Z,81.76
2022-08-26T03:41:36.581Z,81.87
2022-08-26T03:44:05.870Z,83.54
2022-08-26T03:46:33.578Z,84.72
2022-08-26T03:49:02.285Z,84.89
2022-08-26T03:51:29.215Z,85.77
2022-08-26T03:53:55.990Z,86.30
2022-08-26T03:56:23.703Z,87.16
2022-08-26T03:58:50.915Z,86.59
2022-08-26T04:01:17.616Z,85.63
2022-08-26T04:03:58.191Z,85.20
2022-08-26T04:06:37.209Z,85.58
2022-08-26T04:09:07.775Z,84.62
2022-08-26T04:11:37.741Z,84.82
2022-08-26T04:14:14.208Z,86.68
2022-08-26T04:16:45.796Z,87.19
2022-08-26T04:19:14.356Z,87.56
2022-08-26T04:21:41.490Z,86.26
2022-08-26T04:24:12.064Z,86.62
2022-08-26T04:26:42.584Z,87.59
2022-08-26T04:29:18.111Z,86.13
2022-08-26T04:31:45.249Z,85.54
2022-08-26T04:34:11.811Z,86.88
2022-08-26T04:36:41.911Z,87.35
2022-08-26T04:39:12.010Z,87.47
2022-08-26T04:41:39.549Z,87.63
2022-08-26T04:44:07.687Z,88.17
2022-08-26T04:46:35.145Z,87.43
2022-08-26T04:49:02.167Z,87.63
2022-08-26T04:51:28.671Z,87.69
2022-08-26T04:53:58.988Z,87.79
2022-08-26T04:56:27.850Z,87.90
2022-08-26T04:58:55.291Z,88.22
2022-08-26T05:01:22.793Z,88.58
2022-08-26T05:03:50.624Z,88.47
2022-08-26T05:06:19.046Z,89.08
2022-08-26T05:08:46.569Z,88.62
2022-08-26T05:11:13.457Z,88.65
2022-08-26T05:13:40.279Z,88.95
2022-08-26T05:16:11.610Z,88.90
2022-08-26T05:18:39.535Z,88.17
2022-08-26T05:21:07.338Z,87.96
2022-08-26T05:23:36.235Z,87.47
2022-08-26T05:26:08.356Z,87.31
2022-08-26T05:28:36.235Z,87.12
2022-08-26T05:31:14.977Z,87.27
2022-08-26T05:33:45.355Z,86.08
2022-08-26T05:36:15.160Z,85.51
2022-08-26T05:38:42.911Z,85.45
2022-08-26T05:41:24.880Z,81.63
2022-08-26T05:43:51.934Z,79.53
2022-08-26T05:46:18.994Z,78.24
2022-08-26T05:48:45.490Z,77.00
2022-08-26T05:51:14.585Z,77.83
2022-08-26T05:53:43.944Z,76.56
2022-08-26T05:56:24.629Z,75.90
2022-08-26T05:58:51.103Z,75.50
2022-08-26T06:01:21.464Z,74.88
2022-08-26T06:03:54.702Z,75.72
2022-08-26T06:06:29.048Z,75.95
2022-08-26T06:08:59.387Z,75.38
2022-08-26T06:11:27.586Z,75.01
2022-08-26T06:13:57.097Z,73.91
2022-08-26T06:16:27.066Z,72.54
2022-08-26T06:18:54.147Z,71.49
2022-08-26T06:21:25.235Z,70.70
2022-08-26T06:24:13.925Z,70.10
2022-08-26T06:26:42.746Z,69.26
2022-08-26T06:29:09.703Z,68.14
2022-08-26T06:31:36.368Z,68.22
2022-08-26T06:34:09.875Z,68.00
2022-08-26T06:36:39.275Z,66.89
2022-08-26T06:39:07.959Z,65.34
2022-08-26T06:41:35.012Z,64.56
2022-08-26T06:44:04.759Z,64.61
2022-08-26T06:46:32.172Z,62.95
2022-08-26T06:48:59.372Z,61.73
2022-08-26T06:51:28.837Z,61.13
2022-08-26T06:53:57.151Z,60.83
2022-08-26T06:56:27.239Z,60.20
2022-08-26T06:58:53.752Z,59.11
2022-08-26T07:01:27.755Z,57.88
2022-08-26T07:03:57.103Z,57.86
2022-08-26T07:06:25.630Z,57.25
2022-08-26T07:08:54.685Z,56.80
2022-08-26T07:11:21.123Z,55.81
2022-08-26T07:13:47.975Z,54.95
2022-08-26T07:16:17.586Z,54.91
2022-08-26T07:18:45.044Z,54.03
2022-08-26T07:21:14.626Z,52.62
2022-08-26T07:23:41.303Z,53.27
2022-08-26T07:26:21.000Z,51.72
2022-08-26T07:28:50.514Z,52.94
2022-08-26T07:31:22.622Z,52.89
2022-08-26T07:33:49.864Z,53.02
2022-08-26T07:36:19.295Z,52.77
2022-08-26T07:38:48.075Z,53.98
2022-08-26T07:41:17.251Z,51.33
2022-08-26T07:43:44.329Z,52.26
2022-08-26T07:46:16.465Z,53.59
2022-08-26T07:48:46.104Z,52.58
2022-08-26T07:51:15.287Z,52.16
2022-08-26T07:53:42.994Z,51.14
2022-08-26T07:56:09.904Z,49.96
2022-08-26T07:58:38.500Z,50.61
2022-08-26T08:01:05.445Z,49.46
2022-08-26T08:03:34.437Z,49.24
2022-08-26T08:06:01.081Z,48.59
2022-08-26T08:08:29.234Z,48.26
2022-08-26T08:10:56.608Z,48.71
2022-08-26T08:13:24.269Z,48.38
2022-08-26T08:15:51.072Z,49.61
2022-08-26T08:18:20.546Z,49.61
2022-08-26T08:20:54.555Z,48.36
2022-08-26T08:23:25.809Z,45.64
2022-08-26T08:26:10.503Z,46.05
2022-08-26T08:28:38.423Z,45.91
2022-08-26T08:31:05.626Z,46.29
2022-08-26T08:33:33.735Z,45.41
2022-08-26T08:36:01.110Z,44.74
2022-08-26T08:38:29.489Z,45.48
2022-08-26T08:40:56.047Z,44.01
2022-08-26T08:43:40.112Z,44.24
2022-08-26T08:46:15.954Z,43.88
2022-08-26T08:48:44.846Z,44.16
2022-08-26T08:51:23.373Z,43.72
2022-08-26T08:53:54.601Z,42.94
2022-08-26T08:56:31.175Z,41.96
2022-08-26T08:59:22.431Z,41.96
2022-08-26T09:01:58.947Z,40.94
2022-08-26T09:04:58.856Z,41.50
2022-08-26T09:07:34.571Z,41.37
2022-08-26T09:10:31.012Z,40.01
2022-08-26T09:12:57.991Z,42.02
2022-08-26T09:15:42.069Z,41.70
2022-08-26T09:18:14.348Z,42.60
2022-08-26T09:20:48.778Z,42.72
2022-08-26T09:23:15.543Z,41.38
2022-08-26T09:25:51.503Z,42.29
2022-08-26T09:28:21.601Z,41.85
2022-08-26T09:31:08.006Z,42.02
2022-08-26T09:33:38.209Z,41.91
2022-08-26T09:36:14.488Z,42.18
2022-08-26T09:38:42.086Z,43.19
2022-08-26T09:41:22.357Z,43.79
2022-08-26T09:44:04.094Z,42.20
2022-08-26T09:46:31.878Z,43.46
2022-08-26T09:49:24.572Z,43.18
2022-08-26T09:52:03.644Z,43.49
2022-08-26T09:54:32.333Z,43.52
2022-08-26T09:57:18.248Z,43.96
2022-08-26T09:59:45.052Z,42.80
2022-08-26T10:02:32.922Z,42.16
2022-08-26T10:05:09.163Z,43.37
2022-08-26T10:07:45.026Z,43.86
2022-08-26T10:10:17.355Z,43.50
2022-08-26T10:12:52.001Z,42.80
2022-08-26T10:15:19.963Z,42.98
2022-08-26T10:18:00.950Z,42.56
2022-08-26T10:20:34.547Z,43.41
2022-08-26T10:23:07.746Z,43.17
2022-08-26T10:25:42.904Z,42.91
2022-08-26T10:28:20.363Z,43.05
2022-08-26T10:30:56.094Z,42.60
2022-08-26T10:33:23.978Z,42.74
2022-08-26T10:35:57.582Z,43.02
2022-08-26T10:38:34.574Z,42.32
2022-08-26T10:41:10.769Z,42.28
2022-08-26T10:43:48.511Z,42.56
2022-08-26T10:46:22.354Z,43.28
2022-08-26T10:48:59.947Z,43.12
2022-08-26T10:51:35.366Z,42.00
2022-08-26T10:54:11.804Z,41.56
2022-08-26T10:56:49.540Z,40.38
2022-08-26T10:59:18.991Z,41.01
2022-08-26T11:01:56.553Z,41.28
2022-08-26T11:04:58.928Z,40.50
2022-08-26T11:07:31.879Z,41.23
2022-08-26T11:10:00.707Z,41.37
2022-08-26T11:12:36.331Z,41.54
2022-08-26T11:15:10.955Z,42.32
2022-08-26T11:17:45.727Z,41.62
2022-08-26T11:20:31.026Z,41.78
2022-08-26T11:23:20.283Z,41.92
2022-08-26T11:25:57.356Z,41.57
2022-08-26T11:28:44.467Z,41.54
2022-08-26T11:31:40.079Z,42.65
2022-08-26T11:34:12.626Z,42.40
2022-08-26T11:36:39.267Z,41.37
2022-08-26T11:39:21.199Z,41.85
2022-08-26T11:41:52.850Z,41.84
2022-08-26T11:44:25.564Z,42.79
2022-08-26T11:46:58.002Z,43.63
2022-08-26T11:49:24.853Z,43.19
2022-08-26T11:51:51.677Z,42.82
2022-08-26T11:54:35.157Z,42.38
2022-08-26T11:57:09.391Z,43.39
2022-08-26T11:59:40.381Z,43.34
2022-08-26T12:02:17.844Z,44.52
2022-08-26T12:04:48.797Z,42.33
2022-08-26T12:07:17.095Z,42.40
2022-08-26T12:10:00.339Z,42.65
2022-08-26T12:12:34.514Z,41.24
2022-08-26T12:15:22.644Z,42.41
2022-08-26T12:17:54.605Z,42.61
2022-08-26T12:20:31.442Z,43.24
2022-08-26T12:23:00.065Z,41.83
2022-08-26T12:25:27.928Z,42.08
2022-08-26T12:28:05.301Z,42.95
2022-08-26T12:30:31.911Z,43.48
2022-08-26T12:33:23.052Z,42.81
2022-08-26T12:35:56.272Z,41.41
2022-08-26T12:38:25.925Z,42.69
2022-08-26T12:40:52.534Z,41.96
2022-08-26T12:43:39.355Z,43.11
2022-08-26T12:46:06.772Z,43.79
2022-08-26T12:48:38.331Z,42.42
2022-08-26T12:51:08.970Z,41.66
2022-08-26T12:53:42.562Z,41.91
2022-08-26T12:56:27.607Z,42.62
2022-08-26T12:59:03.346Z,41.65
2022-08-26T13:01:38.022Z,42.30
2022-08-26T13:04:06.480Z,41.46
2022-08-26T13:06:34.607Z,42.01
2022-08-26T13:09:24.004Z,41.71
2022-08-26T13:11:52.814Z,41.23
2022-08-26T13:14:23.818Z,42.72
2022-08-26T13:16:52.403Z,42.02
2022-08-26T13:19:22.102Z,42.00
2022-08-26T13:21:52.840Z,41.61
2022-08-26T13:24:26.452Z,41.72
2022-08-26T13:26:53.072Z,40.27
2022-08-26T13:29:20.052Z,40.62
2022-08-26T13:31:47.355Z,40.01
2022-08-26T13:34:19.055Z,40.50
2022-08-26T13:36:47.216Z,40.31
2022-08-26T13:39:13.899Z,41.93
2022-08-26T13:41:40.827Z,40.08
2022-08-26T13:44:07.247Z,40.26
2022-08-26T13:46:34.028Z,40.82
2022-08-26T13:49:01.047Z,40.38
2022-08-26T13:51:28.459Z,40.16
2022-08-26T13:53:55.309Z,40.95
2022-08-26T13:56:22.900Z,38.22
2022-08-26T13:58:49.832Z,38.14
2022-08-26T14:01:16.862Z,38.85
2022-08-26T14:03:43.688Z,39.55
2022-08-26T14:06:10.587Z,39.44
2022-08-26T14:08:38.409Z,39.65
2022-08-26T14:11:05.094Z,39.76
2022-08-26T14:13:31.548Z,39.42
2022-08-26T14:16:01.186Z,38.93
2022-08-26T14:18:33.576Z,39.21
2022-08-26T14:21:01.924Z,39.16
2022-08-26T14:23:28.419Z,40.15
2022-08-26T14:25:54.901Z,40.64
2022-08-26T14:28:21.557Z,39.04
2022-08-26T14:30:53.574Z,37.70
2022-08-26T14:33:25.247Z,39.38
2022-08-26T14:35:52.052Z,39.55
2022-08-26T14:38:18.527Z,40.15
2022-08-26T14:40:45.281Z,40.78
2022-08-26T14:43:15.253Z,41.14
2022-08-26T14:45:44.451Z,41.97
2022-08-26T14:48:11.195Z,42.13
2022-08-26T14:50:38.212Z,43.41
2022-08-26T14:53:23.347Z,44.24
2022-08-26T14:55:50.384Z,45.92
2022-08-26T14:58:17.001Z,46.03
2022-08-26T15:00:43.542Z,46.47
2022-08-26T15:03:10.095Z,46.63
2022-08-26T15:05:36.770Z,47.29
2022-08-26T15:08:10.542Z,48.03
2022-08-26T15:10:37.364Z,48.02
2022-08-26T15:13:03.974Z,47.70
2022-08-26T15:15:30.686Z,47.42
2022-08-26T15:17:57.146Z,46.40
2022-08-26T15:20:23.934Z,45.37
2022-08-26T15:22:50.400Z,47.35
2022-08-26T15:25:18.015Z,50.27
2022-08-26T15:27:44.580Z,58.64
2022-08-26T15:30:12.189Z,63.77
2022-08-26T15:32:38.637Z,66.43
2022-08-26T15:35:09.069Z,69.92
2022-08-26T15:37:36.523Z,75.25
2022-08-26T15:40:03.869Z,74.29
2022-08-26T15:42:30.477Z,84.55
2022-08-26T15:44:56.904Z,79.65
2022-08-26T15:47:23.688Z,81.26
2022-08-26T15:49:50.284Z,81.47
2022-08-26T15:52:17.390Z,81.44
2022-08-26T15:54:43.837Z,86.24
2022-08-26T15:57:12.982Z,83.82
2022-08-26T15:59:40.979Z,78.59
2022-08-26T16:02:09.027Z,79.26
2022-08-26T16:04:35.550Z,82.53
2022-08-26T16:07:02.356Z,88.19
2022-08-26T16:09:30.112Z,89.74
2022-08-26T16:11:57.935Z,87.82
2022-08-26T16:14:25.288Z,81.50
2022-08-26T16:16:52.228Z,78.63
2022-08-26T16:19:19.100Z,76.04
2022-08-26T16:21:45.621Z,68.02
2022-08-26T16:24:12.734Z,64.58
2022-08-26T16:26:41.387Z,62.19
2022-08-26T16:29:12.153Z,66.42
2022-08-26T16:31:39.089Z,72.11
2022-08-26T16:34:06.440Z,80.02
2022-08-26T16:36:33.449Z,76.38
2022-08-26T16:39:00.250Z,86.20
2022-08-26T16:41:29.957Z,83.00
2022-08-26T16:43:57.006Z,82.77
2022-08-26T16:46:26.120Z,79.98
2022-08-26T16:48:55.886Z,77.70
2022-08-26T16:51:24.173Z,81.15
2022-08-26T16:53:51.321Z,79.41
2022-08-26T16:56:20.999Z,80.77
2022-08-26T16:58:50.546Z,87.14
2022-08-26T17:01:17.687Z,87.85
2022-08-26T17:03:44.192Z,86.44
2022-08-26T17:06:11.338Z,90.28
2022-08-26T17:08:39.656Z,84.54
2022-08-26T17:11:06.736Z,83.20
2022-08-26T17:13:35.101Z,83.27
2022-08-26T17:16:04.284Z,88.76
2022-08-26T17:18:31.278Z,91.38
2022-08-26T17:21:08.093Z,96.76
2022-08-26T17:23:35.048Z,96.82
2022-08-26T17:26:01.612Z,100.00
2022-08-26T17:28:28.295Z,100.00
2022-08-26T17:30:57.245Z,100.00
2022-08-26T17:33:24.625Z,100.00
2022-08-26T17:35:52.936Z,100.00
2022-08-26T17:38:20.650Z,100.00
2022-08-26T17:40:47.140Z,100.00
2022-08-26T17:43:13.716Z,100.00
2022-08-26T17:45:40.561Z,100.00
2022-08-26T17:48:07.886Z,100.00
2022-08-26T17:50:34.508Z,100.00
2022-08-26T17:53:00.970Z,100.00
2022-08-26T17:55:27.869Z,100.00
2022-08-26T17:57:54.422Z,100.00
2022-08-26T18:00:22.990Z,100.00
2022-08-26T18:02:49.503Z,100.00
2022-08-26T18:05:17.442Z,100.00
2022-08-26T18:07:44.792Z,100.00
2022-08-26T18:10:13.739Z,100.00
2022-08-26T18:12:41.458Z,100.00
2022-08-26T18:15:09.820Z,100.00
2022-08-26T18:17:37.611Z,100.00
2022-08-26T18:20:04.408Z,100.00
2022-08-26T18:22:30.881Z,100.00
2022-08-26T18:24:58.769Z,100.00
2022-08-26T18:27:26.365Z,100.00
2022-08-26T18:29:53.050Z,100.00
2022-08-26T18:32:19.500Z,100.00
2022-08-26T18:34:45.959Z,100.00
2022-08-26T18:37:14.605Z,96.12
2022-08-26T18:39:41.655Z,95.63
2022-08-26T18:42:08.303Z,94.70
2022-08-26T18:44:35.011Z,94.15
2022-08-26T18:47:01.736Z,93.23
2022-08-26T18:49:29.261Z,94.08
2022-08-26T18:51:55.941Z,94.15
2022-08-26T18:54:22.492Z,91.98
2022-08-26T18:56:49.074Z,92.40
2022-08-26T18:59:15.572Z,90.78
2022-08-26T19:01:42.812Z,93.46
2022-08-26T19:04:14.107Z,94.09
2022-08-26T19:06:46.615Z,100.00
2022-08-26T19:09:14.195Z,100.00
2022-08-26T19:11:45.303Z,100.00
2022-08-26T19:14:14.802Z,100.00
2022-08-26T19:16:44.005Z,100.00
2022-08-26T19:19:11.347Z,100.00
2022-08-26T19:21:38.564Z,100.00
2022-08-26T19:24:12.216Z,100.00
2022-08-26T19:26:39.049Z,100.00
2022-08-26T19:29:05.706Z,100.00
2022-08-26T19:31:32.238Z,100.00
2022-08-26T19:33:59.435Z,100.00
2022-08-26T19:36:28.056Z,100.00
2022-08-26T19:38:55.754Z,100.00
2022-08-26T19:41:37.113Z,100.00
2022-08-26T19:44:10.262Z,100.00
2022-08-26T19:49:08.959Z,100.00
2022-08-26T19:51:36.600Z,100.00
2022-08-26T19:54:04.258Z,100.00
2022-08-26T19:56:31.394Z,100.00
2022-08-26T19:58:58.271Z,100.00
2022-08-26T20:01:25.565Z,100.00
2022-08-26T20:03:52.052Z,100.00
2022-08-26T20:06:19.897Z,100.00
2022-08-26T20:08:46.887Z,100.00
2022-08-26T20:11:16.060Z,100.00
2022-08-26T20:13:44.158Z,100.00
2022-08-26T20:16:11.928Z,100.00
2022-08-26T20:18:58.736Z,100.00
2022-08-26T20:21:29.132Z,100.00
2022-08-26T20:24:17.829Z,100.00
2022-08-26T20:26:44.871Z,100.00
2022-08-26T20:29:15.016Z,100.00
2022-08-26T20:31:43.932Z,100.00
2022-08-26T20:34:13.144Z,100.00
2022-08-26T20:36:41.042Z,100.00
2022-08-26T20:39:08.808Z,100.00
2022-08-26T20:41:35.472Z,100.00
2022-08-26T20:44:02.034Z,100.00
2022-08-26T20:46:28.705Z,100.00
2022-08-26T20:48:55.295Z,100.00
2022-08-26T20:51:24.726Z,100.00
2022-08-26T20:53:51.240Z,100.00
2022-08-26T20:56:23.473Z,100.00
2022-08-26T20:58:55.380Z,100.00
2022-08-26T21:01:26.511Z,100.00
2022-08-26T21:03:54.428Z,100.00
2022-08-26T21:06:21.739Z,100.00
2022-08-26T21:08:49.915Z,100.00
2022-08-26T21:11:17.967Z,100.00
2022-08-26T21:14:04.057Z,100.00
2022-08-26T21:16:31.490Z,100.00
2022-08-26T21:18:58.840Z,100.00
2022-08-26T21:21:27.603Z,100.00
2022-08-26T21:23:54.979Z,100.00
2022-08-26T21:26:22.517Z,100.00
2022-08-26T21:28:49.335Z,100.00
2022-08-26T21:31:18.656Z,100.00
2022-08-26T21:33:45.372Z,100.00
2022-08-26T21:36:13.227Z,100.00
2022-08-26T21:38:40.444Z,100.00
2022-08-26T21:41:27.212Z,100.00
2022-08-26T21:43:57.903Z,100.00
2022-08-26T21:46:26.870Z,100.00
2022-08-26T21:49:01.555Z,100.00
2022-08-26T21:51:31.019Z,100.00
2022-08-26T21:53:58.640Z,100.00
2022-08-26T21:56:27.255Z,100.00
2022-08-26T21:58:55.443Z,100.00
2022-08-26T22:01:25.565Z,100.00
2022-08-26T22:03:52.914Z,100.00
2022-08-26T22:06:22.188Z,100.00
2022-08-26T22:08:48.933Z,100.00
2022-08-26T22:11:15.844Z,100.00
2022-08-26T22:13:43.324Z,100.00
2022-08-26T22:16:11.194Z,100.00
2022-08-26T22:18:38.520Z,100.00
2022-08-26T22:21:08.458Z,100.00
2022-08-26T22:23:36.028Z,100.00
2022-08-26T22:26:02.992Z,100.00
2022-08-26T22:28:29.544Z,100.00
2022-08-26T22:30:56.022Z,100.00
2022-08-26T22:33:23.304Z,100.00
2022-08-26T22:35:51.693Z,100.00
2022-08-26T22:38:18.960Z,100.00
2022-08-26T22:40:50.263Z,100.00
2022-08-26T22:43:18.333Z,100.00
2022-08-26T22:45:46.914Z,100.00
2022-08-26T22:48:15.628Z,100.00
2022-08-26T22:50:47.058Z,100.00
2022-08-26T22:53:15.783Z,100.00
2022-08-26T22:55:45.503Z,100.00
2022-08-26T22:58:14.496Z,100.00
2022-08-26T23:00:44.791Z,100.00
2022-08-26T23:03:11.569Z,100.00
2022-08-26T23:05:39.791Z,100.00
2022-08-26T23:08:07.075Z,100.00
2022-08-26T23:10:33.617Z,100.00
2022-08-26T23:13:00.115Z,100.00
2022-08-26T23:15:26.983Z,100.00
2022-08-26T23:18:03.132Z,100.00
2022-08-26T23:20:30.684Z,100.00
2022-08-26T23:22:57.159Z,100.00
2022-08-26T23:25:24.447Z,100.00
2022-08-26T23:27:51.740Z,100.00
2022-08-26T23:30:21.867Z,100.00
2022-08-26T23:32:48.622Z,100.00
2022-08-26T23:35:15.945Z,100.00
2022-08-26T23:37:47.899Z,100.00
2022-08-26T23:40:18.546Z,100.00
2022-08-26T23:42:45.043Z,100.00
2022-08-26T23:45:13.490Z,100.00
2022-08-26T23:47:41.175Z,100.00
2022-08-26T23:50:08.519Z,100.00
2022-08-26T23:52:53.475Z,100.00
2022-08-26T23:55:20.338Z,100.00
2022-08-26T23:57:46.756Z,100.00
